sensor_id;sensor_type;location;lat;lon;timestamp;P1;durP1;ratioP1;P2;durP2;ratioP2
57025;SDS011;43961;52.940;6.834;2022-09-09T00:11:33;12.98;;;11.68;;
57025;SDS011;43961;52.940;6.834;2022-09-09T00:16:51;12.00;;;10.88;;
57025;SDS011;43961;52.940;6.834;2022-09-09T00:19:24;14.25;;;12.27;;
57025;SDS011;43961;52.940;6.834;2022-09-09T00:25:11;9.68;;;8.93;;
57025;SDS011;43961;52.940;6.834;2022-09-09T00:27:45;8.70;;;8.00;;
57025;SDS011;43961;52.940;6.834;2022-09-09T00:30:25;9.38;;;8.27;;
57025;SDS011;43961;52.940;6.834;2022-09-09T00:32:59;8.85;;;7.95;;
57025;SDS011;43961;52.940;6.834;2022-09-09T00:35:37;8.70;;;8.05;;
57025;SDS011;43961;52.940;6.834;2022-09-09T00:40:47;8.95;;;7.65;;
57025;SDS011;43961;52.940;6.834;2022-09-09T00:43:38;7.40;;;6.80;;
57025;SDS011;43961;52.940;6.834;2022-09-09T00:46:17;8.50;;;7.68;;
57025;SDS011;43961;52.940;6.834;2022-09-09T00:51:59;12.07;;;9.52;;
57025;SDS011;43961;52.940;6.834;2022-09-09T00:54:44;10.45;;;9.45;;
57025;SDS011;43961;52.940;6.834;2022-09-09T01:07:57;15.40;;;11.18;;
57025;SDS011;43961;52.940;6.834;2022-09-09T01:13:29;14.50;;;11.82;;
57025;SDS011;43961;52.940;6.834;2022-09-09T01:15:59;21.13;;;11.60;;
57025;SDS011;43961;52.940;6.834;2022-09-09T01:18:29;16.52;;;10.85;;
57025;SDS011;43961;52.940;6.834;2022-09-09T01:27:08;17.13;;;11.52;;
57025;SDS011;43961;52.940;6.834;2022-09-09T01:29:35;14.80;;;11.63;;
57025;SDS011;43961;52.940;6.834;2022-09-09T01:38:00;17.73;;;12.90;;
57025;SDS011;43961;52.940;6.834;2022-09-09T01:40:25;25.35;;;15.60;;
57025;SDS011;43961;52.940;6.834;2022-09-09T01:42:51;22.20;;;13.93;;
57025;SDS011;43961;52.940;6.834;2022-09-09T01:45:18;19.77;;;14.25;;
57025;SDS011;43961;52.940;6.834;2022-09-09T01:47:44;24.08;;;15.25;;
57025;SDS011;43961;52.940;6.834;2022-09-09T01:50:11;22.40;;;16.45;;
57025;SDS011;43961;52.940;6.834;2022-09-09T01:52:40;23.15;;;17.05;;
57025;SDS011;43961;52.940;6.834;2022-09-09T01:55:08;22.02;;;16.08;;
57025;SDS011;43961;52.940;6.834;2022-09-09T02:00:15;25.73;;;17.45;;
57025;SDS011;43961;52.940;6.834;2022-09-09T02:03:25;22.27;;;16.20;;
57025;SDS011;43961;52.940;6.834;2022-09-09T02:05:49;22.27;;;16.25;;
57025;SDS011;43961;52.940;6.834;2022-09-09T02:08:20;24.00;;;16.13;;
57025;SDS011;43961;52.940;6.834;2022-09-09T02:11:07;33.05;;;15.75;;
57025;SDS011;43961;52.940;6.834;2022-09-09T02:13:43;22.90;;;15.85;;
57025;SDS011;43961;52.940;6.834;2022-09-09T02:16:12;20.92;;;16.45;;
57025;SDS011;43961;52.940;6.834;2022-09-09T02:18:57;21.60;;;16.35;;
57025;SDS011;43961;52.940;6.834;2022-09-09T02:21:30;20.35;;;14.90;;
57025;SDS011;43961;52.940;6.834;2022-09-09T02:24:00;25.75;;;15.55;;
57025;SDS011;43961;52.940;6.834;2022-09-09T02:26:29;22.25;;;15.20;;
57025;SDS011;43961;52.940;6.834;2022-09-09T02:28:59;17.50;;;13.15;;
57025;SDS011;43961;52.940;6.834;2022-09-09T02:31:28;21.40;;;14.32;;
57025;SDS011;43961;52.940;6.834;2022-09-09T02:33:55;23.08;;;14.50;;
57025;SDS011;43961;52.940;6.834;2022-09-09T02:36:24;22.73;;;12.00;;
57025;SDS011;43961;52.940;6.834;2022-09-09T02:38:55;20.67;;;13.43;;
57025;SDS011;43961;52.940;6.834;2022-09-09T02:41:26;19.85;;;12.95;;
57025;SDS011;43961;52.940;6.834;2022-09-09T02:43:55;18.77;;;14.32;;
57025;SDS011;43961;52.940;6.834;2022-09-09T02:49:19;22.95;;;14.35;;
57025;SDS011;43961;52.940;6.834;2022-09-09T02:52:06;17.70;;;13.85;;
57025;SDS011;43961;52.940;6.834;2022-09-09T02:59:39;24.75;;;17.05;;
57025;SDS011;43961;52.940;6.834;2022-09-09T03:02:05;29.65;;;16.35;;
57025;SDS011;43961;52.940;6.834;2022-09-09T03:04:31;23.73;;;15.45;;
57025;SDS011;43961;52.940;6.834;2022-09-09T03:06:57;34.50;;;14.68;;
57025;SDS011;43961;52.940;6.834;2022-09-09T03:09:24;24.00;;;15.15;;
57025;SDS011;43961;52.940;6.834;2022-09-09T03:11:51;22.33;;;15.48;;
57025;SDS011;43961;52.940;6.834;2022-09-09T03:14:17;23.63;;;15.10;;
57025;SDS011;43961;52.940;6.834;2022-09-09T03:16:46;25.42;;;15.85;;
57025;SDS011;43961;52.940;6.834;2022-09-09T03:19:12;31.58;;;20.02;;
57025;SDS011;43961;52.940;6.834;2022-09-09T03:21:37;20.40;;;16.65;;
57025;SDS011;43961;52.940;6.834;2022-09-09T03:24:04;23.75;;;17.00;;
57025;SDS011;43961;52.940;6.834;2022-09-09T03:26:30;25.38;;;18.23;;
57025;SDS011;43961;52.940;6.834;2022-09-09T03:28:56;24.55;;;17.10;;
57025;SDS011;43961;52.940;6.834;2022-09-09T03:31:22;29.05;;;16.88;;
57025;SDS011;43961;52.940;6.834;2022-09-09T03:33:48;22.48;;;16.17;;
57025;SDS011;43961;52.940;6.834;2022-09-09T03:36:14;26.70;;;17.25;;
57025;SDS011;43961;52.940;6.834;2022-09-09T03:38:40;19.50;;;15.90;;
57025;SDS011;43961;52.940;6.834;2022-09-09T03:41:06;21.15;;;16.73;;
57025;SDS011;43961;52.940;6.834;2022-09-09T03:43:33;25.25;;;16.52;;
57025;SDS011;43961;52.940;6.834;2022-09-09T03:45:59;21.10;;;14.77;;
57025;SDS011;43961;52.940;6.834;2022-09-09T03:48:25;20.67;;;15.70;;
57025;SDS011;43961;52.940;6.834;2022-09-09T03:50:53;18.33;;;15.57;;
57025;SDS011;43961;52.940;6.834;2022-09-09T03:53:23;20.30;;;14.73;;
57025;SDS011;43961;52.940;6.834;2022-09-09T03:55:50;18.85;;;15.32;;
57025;SDS011;43961;52.940;6.834;2022-09-09T03:58:19;23.23;;;15.85;;
57025;SDS011;43961;52.940;6.834;2022-09-09T04:00:56;24.43;;;15.97;;
57025;SDS011;43961;52.940;6.834;2022-09-09T04:03:23;19.17;;;14.63;;
57025;SDS011;43961;52.940;6.834;2022-09-09T04:05:52;16.02;;;12.60;;
57025;SDS011;43961;52.940;6.834;2022-09-09T04:08:19;16.80;;;12.48;;
57025;SDS011;43961;52.940;6.834;2022-09-09T04:10:46;21.88;;;12.43;;
57025;SDS011;43961;52.940;6.834;2022-09-09T04:13:14;18.15;;;11.88;;
57025;SDS011;43961;52.940;6.834;2022-09-09T04:15:41;14.15;;;10.00;;
57025;SDS011;43961;52.940;6.834;2022-09-09T04:18:08;13.80;;;10.30;;
57025;SDS011;43961;52.940;6.834;2022-09-09T04:20:34;11.35;;;8.68;;
57025;SDS011;43961;52.940;6.834;2022-09-09T04:23:00;12.75;;;9.10;;
57025;SDS011;43961;52.940;6.834;2022-09-09T04:25:26;14.73;;;9.75;;
57025;SDS011;43961;52.940;6.834;2022-09-09T04:27:55;11.60;;;9.55;;
57025;SDS011;43961;52.940;6.834;2022-09-09T04:30:22;15.02;;;9.52;;
57025;SDS011;43961;52.940;6.834;2022-09-09T04:32:49;12.10;;;10.15;;
57025;SDS011;43961;52.940;6.834;2022-09-09T04:35:14;15.20;;;11.45;;
57025;SDS011;43961;52.940;6.834;2022-09-09T04:37:40;20.23;;;12.32;;
57025;SDS011;43961;52.940;6.834;2022-09-09T04:40:06;14.43;;;10.27;;
57025;SDS011;43961;52.940;6.834;2022-09-09T04:45:00;16.85;;;11.48;;
57025;SDS011;43961;52.940;6.834;2022-09-09T04:47:26;24.98;;;14.32;;
57025;SDS011;43961;52.940;6.834;2022-09-09T04:49:52;27.65;;;14.48;;
57025;SDS011;43961;52.940;6.834;2022-09-09T04:52:19;22.42;;;14.93;;
57025;SDS011;43961;52.940;6.834;2022-09-09T04:54:45;16.90;;;13.05;;
57025;SDS011;43961;52.940;6.834;2022-09-09T04:57:11;18.38;;;13.65;;
57025;SDS011;43961;52.940;6.834;2022-09-09T04:59:37;21.67;;;14.85;;
57025;SDS011;43961;52.940;6.834;2022-09-09T05:02:04;18.45;;;13.15;;
57025;SDS011;43961;52.940;6.834;2022-09-09T05:04:30;17.35;;;13.18;;
57025;SDS011;43961;52.940;6.834;2022-09-09T05:06:55;26.25;;;13.00;;
57025;SDS011;43961;52.940;6.834;2022-09-09T05:09:21;18.52;;;12.30;;
57025;SDS011;43961;52.940;6.834;2022-09-09T05:11:47;20.73;;;13.73;;
57025;SDS011;43961;52.940;6.834;2022-09-09T05:14:12;17.60;;;13.55;;
57025;SDS011;43961;52.940;6.834;2022-09-09T05:16:39;17.42;;;13.00;;
57025;SDS011;43961;52.940;6.834;2022-09-09T05:19:05;19.40;;;11.80;;
57025;SDS011;43961;52.940;6.834;2022-09-09T05:21:33;27.80;;;15.82;;
57025;SDS011;43961;52.940;6.834;2022-09-09T05:23:58;18.35;;;13.85;;
57025;SDS011;43961;52.940;6.834;2022-09-09T05:26:25;21.60;;;14.18;;
57025;SDS011;43961;52.940;6.834;2022-09-09T05:28:51;19.95;;;14.13;;
57025;SDS011;43961;52.940;6.834;2022-09-09T05:31:17;18.90;;;13.80;;
57025;SDS011;43961;52.940;6.834;2022-09-09T05:33:45;18.45;;;13.55;;
57025;SDS011;43961;52.940;6.834;2022-09-09T05:36:14;24.30;;;14.10;;
57025;SDS011;43961;52.940;6.834;2022-09-09T05:38:42;22.08;;;12.20;;
57025;SDS011;43961;52.940;6.834;2022-09-09T05:41:08;16.17;;;13.45;;
57025;SDS011;43961;52.940;6.834;2022-09-09T05:43:36;17.65;;;12.45;;
57025;SDS011;43961;52.940;6.834;2022-09-09T05:48:37;18.98;;;13.63;;
57025;SDS011;43961;52.940;6.834;2022-09-09T05:51:04;18.77;;;12.40;;
57025;SDS011;43961;52.940;6.834;2022-09-09T05:53:34;15.57;;;12.75;;
57025;SDS011;43961;52.940;6.834;2022-09-09T05:58:30;15.70;;;12.77;;
57025;SDS011;43961;52.940;6.834;2022-09-09T06:01:07;17.48;;;13.25;;
57025;SDS011;43961;52.940;6.834;2022-09-09T06:03:35;17.00;;;12.55;;
57025;SDS011;43961;52.940;6.834;2022-09-09T06:06:05;18.00;;;13.30;;
57025;SDS011;43961;52.940;6.834;2022-09-09T06:08:33;18.15;;;13.60;;
57025;SDS011;43961;52.940;6.834;2022-09-09T06:11:03;17.27;;;12.13;;
57025;SDS011;43961;52.940;6.834;2022-09-09T06:13:34;20.60;;;13.18;;
57025;SDS011;43961;52.940;6.834;2022-09-09T06:16:05;18.55;;;11.30;;
57025;SDS011;43961;52.940;6.834;2022-09-09T06:18:33;19.77;;;12.23;;
57025;SDS011;43961;52.940;6.834;2022-09-09T06:20:59;14.75;;;11.65;;
57025;SDS011;43961;52.940;6.834;2022-09-09T06:23:26;16.70;;;11.55;;
57025;SDS011;43961;52.940;6.834;2022-09-09T06:26:03;16.08;;;12.40;;
57025;SDS011;43961;52.940;6.834;2022-09-09T06:28:39;12.20;;;10.23;;
57025;SDS011;43961;52.940;6.834;2022-09-09T06:31:10;14.85;;;11.15;;
57025;SDS011;43961;52.940;6.834;2022-09-09T06:33:38;13.93;;;9.98;;
57025;SDS011;43961;52.940;6.834;2022-09-09T06:36:13;16.40;;;11.75;;
57025;SDS011;43961;52.940;6.834;2022-09-09T06:38:41;13.20;;;9.82;;
57025;SDS011;43961;52.940;6.834;2022-09-09T06:41:07;11.40;;;9.80;;
57025;SDS011;43961;52.940;6.834;2022-09-09T06:43:34;19.80;;;9.93;;
57025;SDS011;43961;52.940;6.834;2022-09-09T06:46:01;14.63;;;11.30;;
57025;SDS011;43961;52.940;6.834;2022-09-09T06:48:28;12.20;;;10.10;;
57025;SDS011;43961;52.940;6.834;2022-09-09T06:51:02;17.00;;;10.95;;
57025;SDS011;43961;52.940;6.834;2022-09-09T06:53:34;20.20;;;10.05;;
57025;SDS011;43961;52.940;6.834;2022-09-09T06:56:23;20.45;;;9.68;;
57025;SDS011;43961;52.940;6.834;2022-09-09T06:58:52;17.08;;;9.85;;
57025;SDS011;43961;52.940;6.834;2022-09-09T07:01:20;11.30;;;10.10;;
57025;SDS011;43961;52.940;6.834;2022-09-09T07:03:52;11.75;;;8.20;;
57025;SDS011;43961;52.940;6.834;2022-09-09T07:06:23;18.55;;;10.27;;
57025;SDS011;43961;52.940;6.834;2022-09-09T07:08:52;11.90;;;9.23;;
57025;SDS011;43961;52.940;6.834;2022-09-09T07:11:19;11.18;;;9.32;;
57025;SDS011;43961;52.940;6.834;2022-09-09T07:13:47;13.73;;;9.88;;
57025;SDS011;43961;52.940;6.834;2022-09-09T07:16:14;17.88;;;10.52;;
57025;SDS011;43961;52.940;6.834;2022-09-09T07:18:42;14.93;;;10.93;;
57025;SDS011;43961;52.940;6.834;2022-09-09T07:21:12;16.98;;;10.88;;
57025;SDS011;43961;52.940;6.834;2022-09-09T07:23:39;24.70;;;11.30;;
57025;SDS011;43961;52.940;6.834;2022-09-09T07:26:09;16.42;;;9.90;;
57025;SDS011;43961;52.940;6.834;2022-09-09T07:28:39;15.85;;;10.38;;
57025;SDS011;43961;52.940;6.834;2022-09-09T07:31:07;15.20;;;10.02;;
57025;SDS011;43961;52.940;6.834;2022-09-09T07:33:38;17.33;;;10.48;;
57025;SDS011;43961;52.940;6.834;2022-09-09T07:36:13;21.23;;;10.90;;
57025;SDS011;43961;52.940;6.834;2022-09-09T07:38:43;13.20;;;10.13;;
57025;SDS011;43961;52.940;6.834;2022-09-09T07:41:18;16.35;;;9.40;;
57025;SDS011;43961;52.940;6.834;2022-09-09T07:43:46;15.52;;;11.05;;
57025;SDS011;43961;52.940;6.834;2022-09-09T07:46:14;10.50;;;9.20;;
57025;SDS011;43961;52.940;6.834;2022-09-09T07:48:44;11.13;;;9.45;;
57025;SDS011;43961;52.940;6.834;2022-09-09T07:51:13;11.48;;;8.88;;
57025;SDS011;43961;52.940;6.834;2022-09-09T07:53:45;16.73;;;9.43;;
57025;SDS011;43961;52.940;6.834;2022-09-09T07:56:12;9.73;;;8.65;;
57025;SDS011;43961;52.940;6.834;2022-09-09T07:58:42;15.20;;;10.02;;
57025;SDS011;43961;52.940;6.834;2022-09-09T08:03:38;11.90;;;8.27;;
57025;SDS011;43961;52.940;6.834;2022-09-09T08:06:05;11.73;;;7.47;;
57025;SDS011;43961;52.940;6.834;2022-09-09T08:08:33;13.70;;;8.70;;
57025;SDS011;43961;52.940;6.834;2022-09-09T08:11:04;11.90;;;8.13;;
57025;SDS011;43961;52.940;6.834;2022-09-09T08:13:37;10.45;;;7.78;;
57025;SDS011;43961;52.940;6.834;2022-09-09T08:16:07;7.93;;;6.60;;
57025;SDS011;43961;52.940;6.834;2022-09-09T08:18:39;9.65;;;7.25;;
57025;SDS011;43961;52.940;6.834;2022-09-09T08:21:09;12.53;;;8.40;;
57025;SDS011;43961;52.940;6.834;2022-09-09T08:23:37;11.77;;;8.80;;
57025;SDS011;43961;52.940;6.834;2022-09-09T08:26:09;16.67;;;9.18;;
57025;SDS011;43961;52.940;6.834;2022-09-09T08:28:40;9.90;;;8.77;;
57025;SDS011;43961;52.940;6.834;2022-09-09T08:31:07;31.55;;;7.72;;
57025;SDS011;43961;52.940;6.834;2022-09-09T08:33:40;15.68;;;8.75;;
57025;SDS011;43961;52.940;6.834;2022-09-09T08:36:08;18.25;;;8.38;;
57025;SDS011;43961;52.940;6.834;2022-09-09T08:38:36;12.73;;;7.85;;
57025;SDS011;43961;52.940;6.834;2022-09-09T08:43:39;17.52;;;8.75;;
57025;SDS011;43961;52.940;6.834;2022-09-09T08:46:14;15.00;;;8.10;;
57025;SDS011;43961;52.940;6.834;2022-09-09T08:48:55;15.73;;;7.78;;
57025;SDS011;43961;52.940;6.834;2022-09-09T08:51:26;9.20;;;7.15;;
57025;SDS011;43961;52.940;6.834;2022-09-09T08:53:54;18.98;;;8.38;;
57025;SDS011;43961;52.940;6.834;2022-09-09T08:56:25;13.40;;;8.55;;
57025;SDS011;43961;52.940;6.834;2022-09-09T08:58:54;17.50;;;8.02;;
57025;SDS011;43961;52.940;6.834;2022-09-09T09:01:28;14.80;;;9.00;;
57025;SDS011;43961;52.940;6.834;2022-09-09T09:04:37;18.27;;;9.48;;
57025;SDS011;43961;52.940;6.834;2022-09-09T09:07:19;9.52;;;8.52;;
57025;SDS011;43961;52.940;6.834;2022-09-09T09:13:04;10.27;;;8.27;;
57025;SDS011;43961;52.940;6.834;2022-09-09T09:15:38;12.30;;;8.90;;
57025;SDS011;43961;52.940;6.834;2022-09-09T09:18:07;17.83;;;8.60;;
57025;SDS011;43961;52.940;6.834;2022-09-09T09:20:49;12.07;;;8.30;;
57025;SDS011;43961;52.940;6.834;2022-09-09T09:23:40;17.95;;;8.65;;
57025;SDS011;43961;52.940;6.834;2022-09-09T09:26:13;22.88;;;9.15;;
57025;SDS011;43961;52.940;6.834;2022-09-09T09:28:40;14.20;;;7.97;;
57025;SDS011;43961;52.940;6.834;2022-09-09T09:31:06;12.15;;;7.68;;
57025;SDS011;43961;52.940;6.834;2022-09-09T09:33:52;19.70;;;7.63;;
57025;SDS011;43961;52.940;6.834;2022-09-09T09:36:39;16.77;;;7.80;;
57025;SDS011;43961;52.940;6.834;2022-09-09T09:39:21;13.25;;;8.05;;
57025;SDS011;43961;52.940;6.834;2022-09-09T09:41:51;16.98;;;8.10;;
57025;SDS011;43961;52.940;6.834;2022-09-09T09:44:29;11.52;;;6.63;;
57025;SDS011;43961;52.940;6.834;2022-09-09T09:47:10;13.80;;;6.60;;
57025;SDS011;43961;52.940;6.834;2022-09-09T09:49:38;14.98;;;7.40;;
57025;SDS011;43961;52.940;6.834;2022-09-09T09:52:05;13.15;;;7.03;;
57025;SDS011;43961;52.940;6.834;2022-09-09T09:54:38;17.67;;;7.65;;
57025;SDS011;43961;52.940;6.834;2022-09-09T09:57:13;16.65;;;6.50;;
57025;SDS011;43961;52.940;6.834;2022-09-09T09:59:41;15.95;;;7.20;;
57025;SDS011;43961;52.940;6.834;2022-09-09T10:04:45;9.80;;;6.20;;
57025;SDS011;43961;52.940;6.834;2022-09-09T10:07:12;12.60;;;6.53;;
57025;SDS011;43961;52.940;6.834;2022-09-09T10:09:43;12.93;;;6.90;;
57025;SDS011;43961;52.940;6.834;2022-09-09T10:12:30;13.10;;;6.13;;
57025;SDS011;43961;52.940;6.834;2022-09-09T10:20:58;18.50;;;6.68;;
57025;SDS011;43961;52.940;6.834;2022-09-09T10:23:53;15.85;;;6.53;;
57025;SDS011;43961;52.940;6.834;2022-09-09T10:26:53;13.13;;;6.07;;
57025;SDS011;43961;52.940;6.834;2022-09-09T10:29:36;9.00;;;5.97;;
57025;SDS011;43961;52.940;6.834;2022-09-09T10:35:02;14.70;;;5.20;;
57025;SDS011;43961;52.940;6.834;2022-09-09T10:40:04;13.00;;;5.60;;
57025;SDS011;43961;52.940;6.834;2022-09-09T10:42:53;10.23;;;5.13;;
57025;SDS011;43961;52.940;6.834;2022-09-09T10:45:29;11.30;;;6.07;;
57025;SDS011;43961;52.940;6.834;2022-09-09T10:56:10;12.73;;;5.68;;
57025;SDS011;43961;52.940;6.834;2022-09-09T11:01:16;14.77;;;6.00;;
57025;SDS011;43961;52.940;6.834;2022-09-09T11:03:49;7.45;;;4.72;;
57025;SDS011;43961;52.940;6.834;2022-09-09T11:06:26;14.38;;;5.28;;
57025;SDS011;43961;52.940;6.834;2022-09-09T11:08:59;17.08;;;6.45;;
57025;SDS011;43961;52.940;6.834;2022-09-09T11:14:02;9.85;;;5.10;;
57025;SDS011;43961;52.940;6.834;2022-09-09T11:16:52;13.80;;;5.15;;
57025;SDS011;43961;52.940;6.834;2022-09-09T11:22:08;12.90;;;5.88;;
57025;SDS011;43961;52.940;6.834;2022-09-09T11:24:53;12.43;;;5.40;;
57025;SDS011;43961;52.940;6.834;2022-09-09T11:28:15;14.63;;;5.15;;
57025;SDS011;43961;52.940;6.834;2022-09-09T11:30:18;12.90;;;4.55;;
57025;SDS011;43961;52.940;6.834;2022-09-09T11:36:12;17.23;;;5.20;;
57025;SDS011;43961;52.940;6.834;2022-09-09T11:38:52;9.98;;;4.32;;
57025;SDS011;43961;52.940;6.834;2022-09-09T11:41:23;12.60;;;3.95;;
57025;SDS011;43961;52.940;6.834;2022-09-09T11:43:50;11.27;;;4.00;;
57025;SDS011;43961;52.940;6.834;2022-09-09T11:46:17;8.80;;;4.10;;
57025;SDS011;43961;52.940;6.834;2022-09-09T11:48:59;14.57;;;3.88;;
57025;SDS011;43961;52.940;6.834;2022-09-09T11:51:29;12.55;;;4.13;;
57025;SDS011;43961;52.940;6.834;2022-09-09T11:54:00;15.35;;;4.65;;
57025;SDS011;43961;52.940;6.834;2022-09-09T11:58:57;8.57;;;4.55;;
57025;SDS011;43961;52.940;6.834;2022-09-09T12:01:37;12.73;;;4.65;;
57025;SDS011;43961;52.940;6.834;2022-09-09T12:04:17;8.93;;;4.28;;
57025;SDS011;43961;52.940;6.834;2022-09-09T12:06:59;9.65;;;5.07;;
57025;SDS011;43961;52.940;6.834;2022-09-09T12:19:45;9.50;;;3.83;;
57025;SDS011;43961;52.940;6.834;2022-09-09T12:28:20;6.15;;;3.75;;
57025;SDS011;43961;52.940;6.834;2022-09-09T12:33:36;8.82;;;3.47;;
57025;SDS011;43961;52.940;6.834;2022-09-09T12:36:09;12.30;;;4.38;;
57025;SDS011;43961;52.940;6.834;2022-09-09T12:38:39;7.18;;;3.75;;
57025;SDS011;43961;52.940;6.834;2022-09-09T12:41:06;6.82;;;3.92;;
57025;SDS011;43961;52.940;6.834;2022-09-09T12:43:49;5.55;;;4.15;;
57025;SDS011;43961;52.940;6.834;2022-09-09T12:46:30;5.85;;;3.40;;
57025;SDS011;43961;52.940;6.834;2022-09-09T12:49:03;12.60;;;3.53;;
57025;SDS011;43961;52.940;6.834;2022-09-09T12:51:30;8.35;;;3.88;;
57025;SDS011;43961;52.940;6.834;2022-09-09T12:53:58;12.95;;;4.57;;
57025;SDS011;43961;52.940;6.834;2022-09-09T12:56:26;7.35;;;3.58;;
57025;SDS011;43961;52.940;6.834;2022-09-09T12:58:55;9.38;;;3.70;;
57025;SDS011;43961;52.940;6.834;2022-09-09T13:01:30;11.15;;;4.57;;
57025;SDS011;43961;52.940;6.834;2022-09-09T13:04:01;12.15;;;5.78;;
57025;SDS011;43961;52.940;6.834;2022-09-09T13:06:30;7.95;;;4.22;;
57025;SDS011;43961;52.940;6.834;2022-09-09T13:08:58;7.32;;;3.15;;
57025;SDS011;43961;52.940;6.834;2022-09-09T13:11:35;10.30;;;3.78;;
57025;SDS011;43961;52.940;6.834;2022-09-09T13:14:03;11.60;;;3.95;;
57025;SDS011;43961;52.940;6.834;2022-09-09T13:16:33;14.10;;;5.07;;
57025;SDS011;43961;52.940;6.834;2022-09-09T13:19:01;8.25;;;3.55;;
57025;SDS011;43961;52.940;6.834;2022-09-09T13:21:35;10.85;;;3.50;;
57025;SDS011;43961;52.940;6.834;2022-09-09T13:24:05;8.43;;;2.83;;
57025;SDS011;43961;52.940;6.834;2022-09-09T13:26:53;8.90;;;3.42;;
57025;SDS011;43961;52.940;6.834;2022-09-09T13:29:21;8.25;;;3.15;;
57025;SDS011;43961;52.940;6.834;2022-09-09T13:31:53;9.70;;;3.67;;
57025;SDS011;43961;52.940;6.834;2022-09-09T13:34:27;14.60;;;4.95;;
57025;SDS011;43961;52.940;6.834;2022-09-09T13:36:57;5.80;;;3.03;;
57025;SDS011;43961;52.940;6.834;2022-09-09T13:39:27;4.78;;;3.47;;
57025;SDS011;43961;52.940;6.834;2022-09-09T13:41:53;3.83;;;3.08;;
57025;SDS011;43961;52.940;6.834;2022-09-09T13:44:23;6.95;;;3.10;;
57025;SDS011;43961;52.940;6.834;2022-09-09T13:47:02;8.77;;;4.07;;
57025;SDS011;43961;52.940;6.834;2022-09-09T13:49:46;15.25;;;8.38;;
57025;SDS011;43961;52.940;6.834;2022-09-09T13:52:13;11.18;;;4.93;;
57025;SDS011;43961;52.940;6.834;2022-09-09T13:54:47;11.82;;;3.65;;
57025;SDS011;43961;52.940;6.834;2022-09-09T13:57:23;9.68;;;4.10;;
57025;SDS011;43961;52.940;6.834;2022-09-09T13:59:50;14.18;;;4.18;;
57025;SDS011;43961;52.940;6.834;2022-09-09T14:02:22;7.22;;;3.88;;
57025;SDS011;43961;52.940;6.834;2022-09-09T14:04:49;11.00;;;5.00;;
57025;SDS011;43961;52.940;6.834;2022-09-09T14:07:16;18.30;;;7.07;;
57025;SDS011;43961;52.940;6.834;2022-09-09T14:09:43;14.75;;;6.13;;
57025;SDS011;43961;52.940;6.834;2022-09-09T14:12:10;19.23;;;4.90;;
57025;SDS011;43961;52.940;6.834;2022-09-09T14:14:36;16.45;;;5.32;;
57025;SDS011;43961;52.940;6.834;2022-09-09T14:17:02;22.65;;;6.57;;
57025;SDS011;43961;52.940;6.834;2022-09-09T14:19:28;21.73;;;6.13;;
57025;SDS011;43961;52.940;6.834;2022-09-09T14:21:55;11.23;;;4.78;;
57025;SDS011;43961;52.940;6.834;2022-09-09T14:24:22;7.85;;;4.95;;
57025;SDS011;43961;52.940;6.834;2022-09-09T14:26:47;13.43;;;4.80;;
57025;SDS011;43961;52.940;6.834;2022-09-09T14:29:13;9.30;;;4.95;;
57025;SDS011;43961;52.940;6.834;2022-09-09T14:31:39;9.77;;;5.20;;
57025;SDS011;43961;52.940;6.834;2022-09-09T14:34:04;11.55;;;4.22;;
57025;SDS011;43961;52.940;6.834;2022-09-09T14:36:31;5.93;;;3.55;;
57025;SDS011;43961;52.940;6.834;2022-09-09T14:38:56;12.75;;;4.20;;
57025;SDS011;43961;52.940;6.834;2022-09-09T14:41:22;9.68;;;3.88;;
57025;SDS011;43961;52.940;6.834;2022-09-09T14:43:48;11.45;;;3.97;;
57025;SDS011;43961;52.940;6.834;2022-09-09T14:46:16;11.07;;;3.75;;
57025;SDS011;43961;52.940;6.834;2022-09-09T14:48:43;7.13;;;3.40;;
57025;SDS011;43961;52.940;6.834;2022-09-09T14:51:14;9.63;;;4.63;;
57025;SDS011;43961;52.940;6.834;2022-09-09T14:53:44;12.15;;;3.75;;
57025;SDS011;43961;52.940;6.834;2022-09-09T14:56:15;2.75;;;2.55;;
57025;SDS011;43961;52.940;6.834;2022-09-09T14:58:44;10.38;;;3.50;;
57025;SDS011;43961;52.940;6.834;2022-09-09T15:01:11;15.27;;;3.00;;
57025;SDS011;43961;52.940;6.834;2022-09-09T15:03:39;3.92;;;2.42;;
57025;SDS011;43961;52.940;6.834;2022-09-09T15:06:09;3.60;;;1.75;;
57025;SDS011;43961;52.940;6.834;2022-09-09T15:08:40;2.70;;;1.75;;
57025;SDS011;43961;52.940;6.834;2022-09-09T15:11:07;5.07;;;2.15;;
57025;SDS011;43961;52.940;6.834;2022-09-09T15:13:35;2.65;;;1.88;;
57025;SDS011;43961;52.940;6.834;2022-09-09T15:16:05;2.40;;;1.93;;
57025;SDS011;43961;52.940;6.834;2022-09-09T15:18:35;11.45;;;2.25;;
57025;SDS011;43961;52.940;6.834;2022-09-09T15:21:04;3.88;;;2.55;;
57025;SDS011;43961;52.940;6.834;2022-09-09T15:23:34;5.55;;;2.22;;
57025;SDS011;43961;52.940;6.834;2022-09-09T15:26:00;3.35;;;2.28;;
57025;SDS011;43961;52.940;6.834;2022-09-09T15:28:27;3.28;;;2.40;;
57025;SDS011;43961;52.940;6.834;2022-09-09T15:30:53;6.43;;;3.15;;
57025;SDS011;43961;52.940;6.834;2022-09-09T15:33:20;9.52;;;3.10;;
57025;SDS011;43961;52.940;6.834;2022-09-09T15:35:46;3.97;;;3.03;;
57025;SDS011;43961;52.940;6.834;2022-09-09T15:38:12;5.55;;;3.22;;
57025;SDS011;43961;52.940;6.834;2022-09-09T15:40:41;10.35;;;4.13;;
57025;SDS011;43961;52.940;6.834;2022-09-09T15:43:07;5.40;;;4.22;;
57025;SDS011;43961;52.940;6.834;2022-09-09T15:45:34;5.75;;;4.13;;
57025;SDS011;43961;52.940;6.834;2022-09-09T15:48:01;9.82;;;4.55;;
57025;SDS011;43961;52.940;6.834;2022-09-09T15:50:28;17.83;;;4.93;;
57025;SDS011;43961;52.940;6.834;2022-09-09T15:52:57;9.55;;;4.22;;
57025;SDS011;43961;52.940;6.834;2022-09-09T15:55:23;10.15;;;4.55;;
57025;SDS011;43961;52.940;6.834;2022-09-09T15:57:49;9.10;;;4.25;;
57025;SDS011;43961;52.940;6.834;2022-09-09T16:00:17;5.82;;;4.32;;
57025;SDS011;43961;52.940;6.834;2022-09-09T16:02:43;7.57;;;4.38;;
57025;SDS011;43961;52.940;6.834;2022-09-09T16:05:09;9.27;;;5.63;;
57025;SDS011;43961;52.940;6.834;2022-09-09T16:07:34;9.43;;;6.10;;
57025;SDS011;43961;52.940;6.834;2022-09-09T16:10:01;6.47;;;5.05;;
57025;SDS011;43961;52.940;6.834;2022-09-09T16:12:27;12.40;;;5.95;;
57025;SDS011;43961;52.940;6.834;2022-09-09T16:14:52;9.93;;;5.53;;
57025;SDS011;43961;52.940;6.834;2022-09-09T16:17:18;6.00;;;4.32;;
57025;SDS011;43961;52.940;6.834;2022-09-09T16:19:45;9.88;;;4.35;;
57025;SDS011;43961;52.940;6.834;2022-09-09T16:22:11;5.78;;;4.63;;
57025;SDS011;43961;52.940;6.834;2022-09-09T16:24:36;5.95;;;3.88;;
57025;SDS011;43961;52.940;6.834;2022-09-09T16:27:02;8.63;;;4.63;;
57025;SDS011;43961;52.940;6.834;2022-09-09T16:29:29;8.77;;;4.28;;
57025;SDS011;43961;52.940;6.834;2022-09-09T16:31:56;7.47;;;4.57;;
57025;SDS011;43961;52.940;6.834;2022-09-09T16:34:21;7.47;;;5.18;;
57025;SDS011;43961;52.940;6.834;2022-09-09T16:36:47;4.47;;;4.15;;
57025;SDS011;43961;52.940;6.834;2022-09-09T16:39:15;7.15;;;4.10;;
57025;SDS011;43961;52.940;6.834;2022-09-09T16:41:42;10.07;;;6.35;;
57025;SDS011;43961;52.940;6.834;2022-09-09T16:44:10;5.82;;;5.22;;
57025;SDS011;43961;52.940;6.834;2022-09-09T16:46:38;6.88;;;4.90;;
57025;SDS011;43961;52.940;6.834;2022-09-09T16:51:36;11.03;;;5.00;;
57025;SDS011;43961;52.940;6.834;2022-09-09T16:54:04;7.10;;;4.40;;
57025;SDS011;43961;52.940;6.834;2022-09-09T16:56:35;6.80;;;5.47;;
57025;SDS011;43961;52.940;6.834;2022-09-09T16:59:05;5.65;;;5.05;;
57025;SDS011;43961;52.940;6.834;2022-09-09T17:01:35;8.60;;;4.55;;
57025;SDS011;43961;52.940;6.834;2022-09-09T17:04:04;6.47;;;4.03;;